Time;durP1;ratioP1;P1;durP2;ratioP2;P2;SDS_P1;SDS_P2;PMS_P1;PMS_P2;Temp;Humidity;BMP_temperature;BMP_pressure;BME280_temperature;BME280_humidity;BME280_pressure;Samples;Min_cycle;Max_cycle;Signal;HPM_P1;HPM_P2
2022/06/12 00:00:59;;;;;;;0.00;0.00;;;;;;;;;;5027596;28;20458;-62
2022/06/12 00:03:26;;;;;;;0.15;0.15;;;;;;;;;;5030772;28;20029;-62
2022/06/12 00:05:54;;;;;;;0.00;0.00;;;;;;;;;;5030093;28;20041;-62
2022/06/12 00:08:21;;;;;;;0.10;0.10;;;;;;;;;;5029713;28;20113;-62
2022/06/12 00:10:47;;;;;;;0.00;0.00;;;;;;;;;;5030468;28;20025;-62
2022/06/12 00:13:14;;;;;;;0.00;0.00;;;;;;;;;;5029944;28;20037;-61
2022/06/12 00:15:40;;;;;;;0.00;0.00;;;;;;;;;;5030519;28;20040;-61
2022/06/12 00:18:05;;;;;;;0.00;0.00;;;;;;;;;;5030457;28;20022;-62
2022/06/12 00:20:31;;;;;;;0.03;0.03;;;;;;;;;;5030305;28;20033;-62
2022/06/12 00:22:58;;;;;;;0.00;0.00;;;;;;;;;;5028728;28;20022;-62
2022/06/12 00:25:25;;;;;;;0.00;0.00;;;;;;;;;;5030955;28;20374;-63
2022/06/12 00:27:50;;;;;;;0.00;0.00;;;;;;;;;;5030190;28;20021;-63
2022/06/12 00:30:17;;;;;;;0.00;0.00;;;;;;;;;;5029526;28;20029;-62
2022/06/12 00:32:46;;;;;;;0.10;0.10;;;;;;;;;;5030549;28;20018;-62
2022/06/12 00:35:11;;;;;;;0.00;0.00;;;;;;;;;;5027830;28;20145;-62
2022/06/12 00:37:37;;;;;;;0.00;0.00;;;;;;;;;;5029992;28;20100;-62
2022/06/12 00:40:03;;;;;;;0.00;0.00;;;;;;;;;;5030036;28;20024;-61
2022/06/12 00:42:41;;;;;;;0.00;0.00;;;;;;;;;;5029504;28;20021;-62
2022/06/12 00:45:25;;;;;;;0.00;0.00;;;;;;;;;;5029795;28;20026;-62
2022/06/12 00:47:50;;;;;;;0.00;0.00;;;;;;;;;;5029965;28;20075;-61
2022/06/12 00:50:15;;;;;;;0.00;0.00;;;;;;;;;;5030053;28;20027;-61
2022/06/12 00:52:46;;;;;;;0.00;0.00;;;;;;;;;;5030251;28;20057;-62
2022/06/12 00:55:12;;;;;;;0.00;0.00;;;;;;;;;;5028789;28;20067;-62
2022/06/12 00:57:37;;;;;;;0.00;0.00;;;;;;;;;;5029859;28;20013;-62
2022/06/12 01:00:10;;;;;;;0.20;0.20;;;;;;;;;;5028612;28;20048;-62
2022/06/12 01:02:35;;;;;;;0.00;0.00;;;;;;;;;;5030401;28;20036;-62
2022/06/12 01:07:52;;;;;;;0.00;0.00;;;;;;;;;;5030257;28;20082;-62
2022/06/12 01:10:18;;;;;;;0.15;0.15;;;;;;;;;;5029615;28;20112;-61
2022/06/12 01:12:50;;;;;;;0.00;0.00;;;;;;;;;;5029800;28;20017;-61
2022/06/12 01:15:18;;;;;;;0.00;0.00;;;;;;;;;;5028687;28;20384;-61
2022/06/12 01:17:44;;;;;;;0.22;0.22;;;;;;;;;;5029509;28;20006;-62
2022/06/12 01:20:12;;;;;;;0.00;0.00;;;;;;;;;;5029441;28;20502;-62
2022/06/12 01:22:52;;;;;;;0.00;0.00;;;;;;;;;;5029565;28;20116;-60
2022/06/12 01:25:21;;;;;;;0.00;0.00;;;;;;;;;;5030824;28;20018;-61
2022/06/12 01:27:46;;;;;;;0.00;0.00;;;;;;;;;;5027806;28;20026;-61
2022/06/12 01:30:16;;;;;;;0.00;0.00;;;;;;;;;;5028866;28;20532;-62
2022/06/12 01:32:48;;;;;;;0.00;0.00;;;;;;;;;;5028291;28;20087;-63
2022/06/12 01:35:20;;;;;;;0.00;0.00;;;;;;;;;;5028884;28;20036;-63
2022/06/12 01:37:50;;;;;;;0.00;0.00;;;;;;;;;;5028774;28;20072;-62
2022/06/12 01:40:21;;;;;;;0.00;0.00;;;;;;;;;;5028667;28;20052;-62
2022/06/12 01:43:16;;;;;;;0.00;0.00;;;;;;;;;;5028479;28;20021;-62
2022/06/12 01:45:54;;;;;;;0.00;0.00;;;;;;;;;;5019890;28;20053;-62
2022/06/12 01:48:22;;;;;;;0.10;0.10;;;;;;;;;;5028121;28;20041;-62
2022/06/12 01:50:48;;;;;;;0.00;0.00;;;;;;;;;;5029060;28;20378;-61
2022/06/12 01:53:18;;;;;;;0.00;0.00;;;;;;;;;;5028368;28;20322;-61
2022/06/12 01:55:49;;;;;;;0.00;0.00;;;;;;;;;;5028677;28;20060;-62
2022/06/12 01:58:14;;;;;;;6.18;5.72;;;;;;;;;;5026115;28;20050;-61
2022/06/12 02:00:44;;;;;;;0.00;0.00;;;;;;;;;;5028752;28;20018;-61
2022/06/12 02:03:16;;;;;;;0.00;0.00;;;;;;;;;;5028211;28;20326;-62
2022/06/12 02:05:42;;;;;;;0.00;0.00;;;;;;;;;;5028662;28;20036;-63
2022/06/12 02:08:13;;;;;;;0.00;0.00;;;;;;;;;;5028485;28;20022;-62
2022/06/12 02:10:44;;;;;;;0.00;0.00;;;;;;;;;;5028461;28;20068;-61
2022/06/12 02:13:12;;;;;;;0.00;0.00;;;;;;;;;;5027793;28;20044;-61
2022/06/12 02:16:07;;;;;;;0.00;0.00;;;;;;;;;;5027549;28;20022;-62
2022/06/12 02:18:33;;;;;;;0.00;0.00;;;;;;;;;;5019399;28;20497;-61
2022/06/12 02:21:22;;;;;;;0.00;0.00;;;;;;;;;;5027990;28;20024;-61
2022/06/12 02:23:53;;;;;;;0.00;0.00;;;;;;;;;;5027544;28;20021;-61
2022/06/12 02:26:21;;;;;;;0.00;0.00;;;;;;;;;;5026464;28;20090;-61
2022/06/12 02:28:55;;;;;;;0.00;0.00;;;;;;;;;;5028339;28;20108;-61
2022/06/12 02:31:23;;;;;;;0.00;0.00;;;;;;;;;;5027957;28;20044;-62
2022/06/12 02:33:52;;;;;;;0.00;0.00;;;;;;;;;;5027460;28;20100;-61
2022/06/12 02:36:20;;;;;;;0.25;0.25;;;;;;;;;;5027522;28;20026;-61
2022/06/12 02:38:52;;;;;;;0.00;0.00;;;;;;;;;;5028417;28;20548;-62
2022/06/12 02:41:21;;;;;;;0.00;0.00;;;;;;;;;;5026834;28;20014;-62
2022/06/12 02:43:47;;;;;;;0.00;0.00;;;;;;;;;;5028205;28;20103;-61
2022/06/12 02:46:23;;;;;;;0.00;0.00;;;;;;;;;;5028003;28;20022;-62
2022/06/12 02:48:48;;;;;;;0.00;0.00;;;;;;;;;;5028402;28;20021;-62
2022/06/12 02:51:35;;;;;;;0.00;0.00;;;;;;;;;;5027378;28;20032;-62
2022/06/12 02:54:03;;;;;;;0.00;0.00;;;;;;;;;;5025912;28;20055;-61
2022/06/12 02:56:32;;;;;;;0.00;0.00;;;;;;;;;;5026881;28;20043;-62
2022/06/12 02:58:57;;;;;;;0.00;0.00;;;;;;;;;;5028276;28;20052;-60
2022/06/12 03:01:29;;;;;;;0.00;0.00;;;;;;;;;;5032316;28;20466;-61
2022/06/12 03:03:58;;;;;;;0.00;0.00;;;;;;;;;;5031959;28;20271;-61
2022/06/12 03:06:26;;;;;;;0.00;0.00;;;;;;;;;;5031220;28;20467;-61
2022/06/12 03:08:51;;;;;;;0.00;0.00;;;;;;;;;;5032055;28;20136;-63
2022/06/12 03:11:23;;;;;;;0.00;0.00;;;;;;;;;;5031552;28;20518;-62
2022/06/12 03:13:49;;;;;;;0.00;0.00;;;;;;;;;;5031882;28;20021;-61
2022/06/12 03:16:20;;;;;;;0.00;0.00;;;;;;;;;;5031553;28;20036;-61
2022/06/12 03:18:48;;;;;;;0.00;0.00;;;;;;;;;;5032747;28;20028;-61
2022/06/12 03:21:13;;;;;;;0.00;0.00;;;;;;;;;;5031162;28;20443;-61
2022/06/12 03:23:53;;;;;;;0.00;0.00;;;;;;;;;;5030827;28;20101;-61
2022/06/12 03:26:18;;;;;;;;;;;;;;;;;;5031775;28;20096;-61
2022/06/12 03:28:53;;;;;;;0.00;0.00;;;;;;;;;;5031596;28;19996;-61
2022/06/12 03:31:18;;;;;;;0.00;0.00;;;;;;;;;;5030047;28;20033;-61
2022/06/12 03:34:06;;;;;;;0.00;0.00;;;;;;;;;;5031642;28;20040;-61
2022/06/12 03:36:35;;;;;;;0.00;0.00;;;;;;;;;;5025427;28;20299;-62
2022/06/12 03:39:06;;;;;;;0.00;0.00;;;;;;;;;;5030717;28;20032;-61
2022/06/12 03:41:37;;;;;;;0.00;0.00;;;;;;;;;;5031491;28;20028;-61
2022/06/12 03:44:02;;;;;;;0.00;0.00;;;;;;;;;;5029863;28;20029;-61
2022/06/12 03:46:31;;;;;;;0.00;0.00;;;;;;;;;;5031064;28;20140;-63
2022/06/12 03:49:11;;;;;;;0.00;0.00;;;;;;;;;;5029675;28;20299;-61
2022/06/12 03:51:36;;;;;;;0.00;0.00;;;;;;;;;;5029157;28;20033;-62
2022/06/12 03:54:01;;;;;;;0.00;0.00;;;;;;;;;;5029966;28;20475;-62
2022/06/12 03:59:34;;;;;;;0.00;0.00;;;;;;;;;;5030610;28;20409;-62
2022/06/12 04:02:01;;;;;;;0.00;0.00;;;;;;;;;;5030754;28;20037;-62
2022/06/12 04:04:29;;;;;;;0.00;0.00;;;;;;;;;;5031024;28;20799;-62
2022/06/12 04:06:56;;;;;;;0.00;0.00;;;;;;;;;;5030715;28;20113;-61
2022/06/12 04:09:23;;;;;;;0.00;0.00;;;;;;;;;;5030383;28;20260;-61
2022/06/12 04:11:53;;;;;;;0.00;0.00;;;;;;;;;;5029755;28;20104;-61
2022/06/12 04:14:20;;;;;;;0.00;0.00;;;;;;;;;;5030063;28;20037;-61
2022/06/12 04:16:47;;;;;;;0.00;0.00;;;;;;;;;;5030629;28;20025;-61
2022/06/12 04:19:18;;;;;;;0.00;0.00;;;;;;;;;;5029797;28;20024;-61
2022/06/12 04:21:47;;;;;;;0.00;0.00;;;;;;;;;;5028610;28;20013;-61
2022/06/12 04:24:16;;;;;;;0.00;0.00;;;;;;;;;;5030098;28;20075;-61
2022/06/12 04:26:47;;;;;;;0.00;0.00;;;;;;;;;;5030511;28;20116;-61
2022/06/12 04:29:12;;;;;;;0.15;0.15;;;;;;;;;;5029902;28;20026;-61
2022/06/12 04:31:39;;;;;;;0.00;0.00;;;;;;;;;;5030542;28;20038;-61
2022/06/12 04:34:12;;;;;;;0.00;0.00;;;;;;;;;;5029770;28;20336;-61
2022/06/12 04:36:38;;;;;;;0.08;0.08;;;;;;;;;;5029151;28;20025;-61
2022/06/12 04:39:03;;;;;;;0.00;0.00;;;;;;;;;;5029051;28;20018;-62
2022/06/12 04:41:30;;;;;;;0.00;0.00;;;;;;;;;;5030453;28;20025;-61
2022/06/12 04:43:55;;;;;;;0.00;0.00;;;;;;;;;;5030427;28;20025;-62
2022/06/12 04:46:21;;;;;;;0.00;0.00;;;;;;;;;;5029969;28;20055;-62
2022/06/12 04:48:48;;;;;;;0.00;0.00;;;;;;;;;;5029951;28;20060;-62
2022/06/12 04:51:13;;;;;;;0.00;0.00;;;;;;;;;;5029048;28;20548;-62
2022/06/12 04:53:39;;;;;;;0.00;0.00;;;;;;;;;;5029941;28;20025;-62
2022/06/12 04:56:05;;;;;;;0.00;0.00;;;;;;;;;;5030068;28;20059;-63
2022/06/12 04:58:30;;;;;;;0.00;0.00;;;;;;;;;;5028194;28;20040;-62
2022/06/12 05:00:56;;;;;;;0.00;0.00;;;;;;;;;;5030399;28;20790;-62
2022/06/12 05:03:21;;;;;;;0.00;0.00;;;;;;;;;;5029621;28;20033;-61
2022/06/12 05:05:47;;;;;;;0.00;0.00;;;;;;;;;;5030175;28;20013;-62
2022/06/12 05:08:13;;;;;;;0.00;0.00;;;;;;;;;;5030240;28;20036;-61
2022/06/12 05:10:39;;;;;;;0.00;0.00;;;;;;;;;;5029791;28;20025;-61
2022/06/12 05:13:05;;;;;;;0.00;0.00;;;;;;;;;;5029188;28;20099;-62
2022/06/12 05:15:30;;;;;;;0.00;0.00;;;;;;;;;;5030007;28;20482;-62
2022/06/12 05:17:55;;;;;;;0.00;0.00;;;;;;;;;;5028383;28;20037;-63
2022/06/12 05:20:23;;;;;;;0.10;0.10;;;;;;;;;;5030201;28;20079;-62
2022/06/12 05:22:48;;;;;;;0.00;0.00;;;;;;;;;;5027651;28;20052;-63
2022/06/12 05:25:14;;;;;;;0.00;0.00;;;;;;;;;;5029267;28;20025;-63
2022/06/12 05:27:40;;;;;;;0.00;0.00;;;;;;;;;;5028399;28;20091;-61
2022/06/12 05:30:06;;;;;;;0.30;0.30;;;;;;;;;;5027742;28;20356;-62
2022/06/12 05:32:32;;;;;;;0.00;0.00;;;;;;;;;;5029542;28;20478;-62
2022/06/12 05:34:57;;;;;;;0.00;0.00;;;;;;;;;;5029243;28;20072;-62
2022/06/12 05:37:22;;;;;;;0.00;0.00;;;;;;;;;;5028615;28;20029;-62
2022/06/12 05:39:48;;;;;;;0.00;0.00;;;;;;;;;;5029174;28;20749;-62
2022/06/12 05:42:13;;;;;;;0.10;0.10;;;;;;;;;;5028562;28;20379;-62
2022/06/12 05:44:39;;;;;;;0.03;0.03;;;;;;;;;;5028890;28;20021;-62
2022/06/12 05:47:04;;;;;;;0.00;0.00;;;;;;;;;;5027655;28;20088;-62
2022/06/12 05:49:30;;;;;;;0.00;0.00;;;;;;;;;;5028911;28;20037;-62
2022/06/12 05:51:55;;;;;;;0.00;0.00;;;;;;;;;;5028722;28;20025;-63
2022/06/12 05:54:20;;;;;;;0.00;0.00;;;;;;;;;;5028515;28;20362;-63
2022/06/12 05:56:46;;;;;;;0.00;0.00;;;;;;;;;;5028861;28;20025;-63
2022/06/12 05:59:11;;;;;;;0.00;0.00;;;;;;;;;;5027886;28;20099;-63
2022/06/12 06:01:38;;;;;;;0.00;0.00;;;;;;;;;;5028374;28;20040;-62
2022/06/12 06:04:03;;;;;;;0.00;0.00;;;;;;;;;;5028898;28;20021;-62
2022/06/12 06:06:31;;;;;;;0.00;0.00;;;;;;;;;;5028810;28;20394;-62
2022/06/12 06:08:57;;;;;;;0.00;0.00;;;;;;;;;;5027484;28;20021;-64
2022/06/12 06:11:22;;;;;;;0.00;0.00;;;;;;;;;;5027214;28;20497;-62
2022/06/12 06:13:48;;;;;;;0.00;0.00;;;;;;;;;;5028424;28;20033;-62
2022/06/12 06:16:13;;;;;;;0.00;0.00;;;;;;;;;;5025980;28;20386;-62
2022/06/12 06:18:40;;;;;;;0.00;0.00;;;;;;;;;;5027373;28;20467;-63
2022/06/12 06:21:08;;;;;;;0.00;0.00;;;;;;;;;;5028085;28;20041;-63
2022/06/12 06:23:42;;;;;;;0.00;0.00;;;;;;;;;;5028272;28;20635;-63
2022/06/12 06:26:08;;;;;;;0.03;0.03;;;;;;;;;;5027811;28;20374;-62
2022/06/12 06:28:34;;;;;;;0.00;0.00;;;;;;;;;;5027826;28;20133;-62
2022/06/12 06:31:00;;;;;;;0.00;0.00;;;;;;;;;;5027798;28;20450;-62
2022/06/12 06:33:25;;;;;;;0.20;0.20;;;;;;;;;;5027585;28;20096;-63
2022/06/12 06:35:50;;;;;;;0.55;0.55;;;;;;;;;;5028145;28;20518;-63
2022/06/12 06:38:16;;;;;;;0.00;0.00;;;;;;;;;;5027340;28;20095;-62
2022/06/12 06:40:42;;;;;;;0.00;0.00;;;;;;;;;;5028126;28;20489;-63
2022/06/12 06:43:08;;;;;;;0.00;0.00;;;;;;;;;;5027538;28;20407;-62
2022/06/12 06:48:17;;;;;;;1.35;1.35;;;;;;;;;;5027622;28;20032;-63
2022/06/12 06:50:43;;;;;;;0.00;0.00;;;;;;;;;;5027893;28;20378;-62
2022/06/12 06:53:09;;;;;;;0.00;0.00;;;;;;;;;;5026995;28;20017;-64
2022/06/12 06:55:35;;;;;;;0.00;0.00;;;;;;;;;;5023605;28;20108;-62
2022/06/12 06:58:00;;;;;;;0.20;0.20;;;;;;;;;;5023989;28;20128;-62
2022/06/12 07:00:28;;;;;;;0.00;0.00;;;;;;;;;;5023185;28;20388;-62
2022/06/12 07:02:54;;;;;;;0.00;0.00;;;;;;;;;;5004849;28;20029;-62
2022/06/12 07:05:19;;;;;;;0.00;0.00;;;;;;;;;;5023643;28;20522;-62
2022/06/12 07:07:45;;;;;;;0.00;0.00;;;;;;;;;;5022684;28;20119;-62
2022/06/12 07:10:13;;;;;;;0.05;0.05;;;;;;;;;;5022933;28;20100;-62
2022/06/12 07:12:39;;;;;;;0.00;0.00;;;;;;;;;;5023448;28;20030;-63
2022/06/12 07:15:04;;;;;;;0.00;0.00;;;;;;;;;;5022295;28;20691;-62
2022/06/12 07:17:29;;;;;;;0.00;0.00;;;;;;;;;;5022268;28;20037;-62
2022/06/12 07:19:55;;;;;;;0.00;0.00;;;;;;;;;;5005921;28;20091;-62
2022/06/12 07:22:21;;;;;;;0.00;0.00;;;;;;;;;;5007089;28;20035;-62
2022/06/12 07:24:46;;;;;;;0.00;0.00;;;;;;;;;;5023583;28;20013;-62
2022/06/12 07:27:11;;;;;;;0.00;0.00;;;;;;;;;;5023232;28;20392;-63
2022/06/12 07:29:37;;;;;;;0.00;0.00;;;;;;;;;;5023137;28;20028;-63
2022/06/12 07:32:02;;;;;;;0.00;0.00;;;;;;;;;;5024649;28;20109;-61
2022/06/12 07:34:27;;;;;;;0.15;0.15;;;;;;;;;;5025638;28;20030;-61
2022/06/12 07:36:53;;;;;;;0.00;0.00;;;;;;;;;;5024985;28;20423;-63
2022/06/12 07:39:21;;;;;;;0.25;0.25;;;;;;;;;;5024843;28;20962;-63
2022/06/12 07:41:48;;;;;;;0.00;0.00;;;;;;;;;;5024104;28;20056;-63
2022/06/12 07:44:15;;;;;;;0.00;0.00;;;;;;;;;;5025116;28;20071;-63
2022/06/12 07:46:40;;;;;;;0.00;0.00;;;;;;;;;;5029108;28;20459;-63
2022/06/12 07:49:06;;;;;;;0.00;0.00;;;;;;;;;;5030456;28;20018;-63
2022/06/12 07:51:31;;;;;;;0.00;0.00;;;;;;;;;;5031288;28;20299;-63
2022/06/12 07:53:56;;;;;;;0.00;0.00;;;;;;;;;;5029801;28;20458;-63
2022/06/12 07:56:23;;;;;;;0.00;0.00;;;;;;;;;;5029247;28;20275;-62
2022/06/12 07:58:48;;;;;;;0.00;0.00;;;;;;;;;;5028476;28;20049;-63
2022/06/12 08:01:17;;;;;;;0.00;0.00;;;;;;;;;;5030036;28;20030;-62
2022/06/12 08:03:43;;;;;;;0.00;0.00;;;;;;;;;;5029691;28;20013;-62
2022/06/12 08:06:08;;;;;;;0.00;0.00;;;;;;;;;;5029951;28;20554;-63
2022/06/12 08:08:34;;;;;;;0.00;0.00;;;;;;;;;;5030139;28;20041;-62
2022/06/12 08:10:59;;;;;;;0.00;0.00;;;;;;;;;;5028854;28;20382;-62
2022/06/12 08:13:25;;;;;;;0.00;0.00;;;;;;;;;;5029050;28;20037;-62
2022/06/12 08:15:51;;;;;;;0.00;0.00;;;;;;;;;;5030297;28;20025;-63
2022/06/12 08:18:17;;;;;;;0.00;0.00;;;;;;;;;;5029905;28;20470;-63
2022/06/12 08:20:45;;;;;;;0.00;0.00;;;;;;;;;;5030414;28;20113;-62
2022/06/12 08:23:37;;;;;;;0.00;0.00;;;;;;;;;;5029537;28;20053;-62
2022/06/12 08:26:19;;;;;;;0.00;0.00;;;;;;;;;;5029964;28;20021;-63
2022/06/12 08:28:46;;;;;;;0.00;0.00;;;;;;;;;;5029754;28;20044;-63
2022/06/12 08:31:13;;;;;;;0.60;0.60;;;;;;;;;;5029508;28;20116;-63
2022/06/12 08:33:39;;;;;;;0.00;0.00;;;;;;;;;;5030195;28;20056;-62
2022/06/12 08:36:05;;;;;;;0.00;0.00;;;;;;;;;;5029771;28;20455;-62
2022/06/12 08:38:30;;;;;;;0.00;0.00;;;;;;;;;;5028780;28;20026;-62
2022/06/12 08:41:14;;;;;;;0.00;0.00;;;;;;;;;;5028791;28;20024;-62
2022/06/12 08:44:06;;;;;;;0.00;0.00;;;;;;;;;;5029668;28;20035;-62
2022/06/12 08:46:41;;;;;;;0.00;0.00;;;;;;;;;;4991192;28;20053;-62
2022/06/12 08:49:29;;;;;;;0.00;0.00;;;;;;;;;;5029693;28;20030;-62
2022/06/12 08:52:01;;;;;;;0.00;0.00;;;;;;;;;;5012274;28;20474;-62
2022/06/12 08:54:31;;;;;;;0.00;0.00;;;;;;;;;;5029837;28;20033;-62
2022/06/12 08:57:16;;;;;;;0.00;0.00;;;;;;;;;;5028242;28;20029;-62
2022/06/12 09:00:00;;;;;;;0.00;0.00;;;;;;;;;;5028692;28;20041;-63
2022/06/12 09:02:28;;;;;;;0.00;0.00;;;;;;;;;;5028789;28;20099;-63
2022/06/12 09:04:54;;;;;;;0.00;0.00;;;;;;;;;;5030110;28;20021;-64
2022/06/12 09:07:44;;;;;;;0.00;0.00;;;;;;;;;;5029370;28;20025;-63
2022/06/12 09:10:15;;;;;;;0.00;0.00;;;;;;;;;;5015453;28;20124;-61
2022/06/12 09:12:49;;;;;;;0.00;0.00;;;;;;;;;;5026445;28;20075;-62
2022/06/12 09:15:20;;;;;;;0.00;0.00;;;;;;;;;;5028967;28;20025;-62
2022/06/12 09:17:51;;;;;;;0.00;0.00;;;;;;;;;;5028291;28;20029;-62
2022/06/12 09:20:20;;;;;;;0.00;0.00;;;;;;;;;;5026196;28;20021;-63
2022/06/12 09:23:04;;;;;;;0.00;0.00;;;;;;;;;;5026070;28;20036;-63
2022/06/12 09:25:29;;;;;;;0.32;0.32;;;;;;;;;;5025135;28;20029;-63
2022/06/12 09:27:54;;;;;;;0.20;0.10;;;;;;;;;;5025192;28;20036;-64
2022/06/12 09:30:33;;;;;;;0.00;0.00;;;;;;;;;;5026565;28;20284;-64
2022/06/12 09:33:12;;;;;;;0.00;0.00;;;;;;;;;;5024910;28;20040;-64
2022/06/12 09:35:46;;;;;;;0.17;0.17;;;;;;;;;;5024469;28;20055;-63
2022/06/12 09:38:19;;;;;;;0.00;0.00;;;;;;;;;;5021308;28;20144;-63
2022/06/12 09:41:00;;;;;;;0.00;0.00;;;;;;;;;;5025136;28;20036;-64
2022/06/12 09:43:37;;;;;;;0.00;0.00;;;;;;;;;;5024938;28;20068;-63
2022/06/12 09:46:20;;;;;;;0.05;0.05;;;;;;;;;;5024930;28;20481;-63
2022/06/12 09:48:54;;;;;;;0.00;0.00;;;;;;;;;;5024810;28;20363;-63
2022/06/12 09:51:26;;;;;;;0.98;0.98;;;;;;;;;;5024586;28;20025;-63
2022/06/12 09:53:51;;;;;;;0.00;0.00;;;;;;;;;;5025057;28;20104;-63
2022/06/12 09:56:20;;;;;;;0.00;0.00;;;;;;;;;;5023985;28;20136;-63
2022/06/12 09:59:07;;;;;;;0.00;0.00;;;;;;;;;;5024735;28;20296;-63
2022/06/12 10:01:35;;;;;;;0.08;0.00;;;;;;;;;;5024763;28;20029;-63
2022/06/12 10:04:03;;;;;;;0.00;0.00;;;;;;;;;;5025060;28;20120;-63
2022/06/12 10:06:37;;;;;;;0.00;0.00;;;;;;;;;;5024202;28;20028;-62
2022/06/12 10:09:05;;;;;;;0.00;0.00;;;;;;;;;;5023914;28;20025;-62
2022/06/12 10:11:37;;;;;;;0.00;0.00;;;;;;;;;;5024077;28;20362;-63
2022/06/12 10:14:15;;;;;;;0.00;0.00;;;;;;;;;;5025185;28;20102;-63
2022/06/12 10:16:46;;;;;;;0.00;0.00;;;;;;;;;;5025066;28;20064;-63
2022/06/12 10:19:20;;;;;;;0.00;0.00;;;;;;;;;;5023947;28;20990;-64
2022/06/12 10:21:49;;;;;;;0.00;0.00;;;;;;;;;;5024142;28;20025;-63
2022/06/12 10:24:14;;;;;;;0.00;0.00;;;;;;;;;;5024396;28;20036;-63
2022/06/12 10:26:40;;;;;;;0.00;0.00;;;;;;;;;;5024007;28;20103;-62
2022/06/12 10:29:08;;;;;;;0.00;0.00;;;;;;;;;;5024069;28;20300;-62
2022/06/12 10:31:34;;;;;;;0.00;0.00;;;;;;;;;;5026035;28;20064;-63
2022/06/12 10:34:14;;;;;;;0.00;0.00;;;;;;;;;;5025321;28;20033;-63
2022/06/12 10:36:41;;;;;;;0.00;0.00;;;;;;;;;;5008316;28;20104;-63
2022/06/12 10:39:10;;;;;;;0.00;0.00;;;;;;;;;;5026628;28;20041;-63
2022/06/12 10:41:43;;;;;;;0.00;0.00;;;;;;;;;;5023649;28;20029;-63
2022/06/12 10:44:25;;;;;;;0.00;0.00;;;;;;;;;;5026505;28;20114;-62
2022/06/12 10:46:50;;;;;;;0.40;0.15;;;;;;;;;;5019900;28;20567;-63
2022/06/12 10:49:21;;;;;;;0.00;0.00;;;;;;;;;;5024750;28;20032;-63
2022/06/12 10:51:47;;;;;;;0.00;0.00;;;;;;;;;;5024630;28;20025;-63
2022/06/12 10:54:15;;;;;;;0.00;0.00;;;;;;;;;;5023640;28;20018;-62
2022/06/12 10:56:43;;;;;;;0.00;0.00;;;;;;;;;;5023998;28;20474;-63
2022/06/12 10:59:09;;;;;;;;;;;;;;;;;;5023603;28;20112;-62
2022/06/12 11:01:44;;;;;;;0.85;0.85;;;;;;;;;;5020817;28;19917;-62
2022/06/12 11:04:24;;;;;;;0.00;0.00;;;;;;;;;;5025340;28;20086;-62
2022/06/12 11:06:52;;;;;;;0.00;0.00;;;;;;;;;;5025853;28;20025;-63
2022/06/12 11:09:25;;;;;;;0.17;0.17;;;;;;;;;;5022674;28;20044;-65
2022/06/12 11:11:50;;;;;;;0.43;0.10;;;;;;;;;;5024454;28;20041;-64
2022/06/12 11:14:19;;;;;;;0.00;0.00;;;;;;;;;;5024687;28;20114;-64
2022/06/12 11:17:04;;;;;;;0.00;0.00;;;;;;;;;;5007066;28;20283;-64
2022/06/12 11:19:38;;;;;;;0.22;0.22;;;;;;;;;;5023618;28;20040;-64
2022/06/12 11:22:10;;;;;;;0.00;0.00;;;;;;;;;;5028825;28;20056;-61
2022/06/12 11:24:59;;;;;;;0.00;0.00;;;;;;;;;;5028109;28;20028;-62
2022/06/12 11:27:24;;;;;;;;;;;;;;;;;;5009735;28;20029;-62
2022/06/12 11:30:09;;;;;;;0.00;0.00;;;;;;;;;;5027268;28;19923;-61
2022/06/12 11:32:48;;;;;;;0.88;0.88;;;;;;;;;;5020093;28;20041;-61
2022/06/12 11:35:33;;;;;;;0.00;0.00;;;;;;;;;;5027691;28;20084;-62
2022/06/12 11:37:58;;;;;;;0.00;0.00;;;;;;;;;;5028432;28;20142;-62
2022/06/12 11:40:32;;;;;;;0.00;0.00;;;;;;;;;;5028381;28;20025;-61
2022/06/12 11:43:16;;;;;;;0.00;0.00;;;;;;;;;;5028618;28;20113;-61
2022/06/12 11:45:47;;;;;;;1.10;0.15;;;;;;;;;;5028748;28;20067;-62
2022/06/12 11:48:27;;;;;;;0.00;0.00;;;;;;;;;;5028040;28;20121;-63
2022/06/12 11:50:58;;;;;;;0.00;0.00;;;;;;;;;;5029091;28;20067;-62
2022/06/12 11:53:30;;;;;;;0.00;0.00;;;;;;;;;;5027440;28;20033;-62
2022/06/12 11:56:14;;;;;;;0.20;0.20;;;;;;;;;;5027596;28;20029;-61
2022/06/12 11:58:42;;;;;;;0.00;0.00;;;;;;;;;;5028201;28;20136;-62
2022/06/12 12:01:10;;;;;;;0.00;0.00;;;;;;;;;;5028078;28;20481;-62
2022/06/12 12:03:54;;;;;;;0.00;0.00;;;;;;;;;;5027546;28;20021;-62
2022/06/12 12:06:25;;;;;;;0.00;0.00;;;;;;;;;;5027006;28;20029;-62
2022/06/12 12:08:50;;;;;;;0.00;0.00;;;;;;;;;;5028065;28;20049;-62
2022/06/12 12:11:22;;;;;;;0.00;0.00;;;;;;;;;;5026355;28;20394;-62
2022/06/12 12:13:49;;;;;;;0.00;0.00;;;;;;;;;;5026516;28;20029;-63
2022/06/12 12:16:14;;;;;;;0.00;0.00;;;;;;;;;;5023855;28;20044;-61
2022/06/12 12:18:43;;;;;;;0.00;0.00;;;;;;;;;;5024721;28;20029;-60
2022/06/12 12:21:14;;;;;;;12.18;1.48;;;;;;;;;;5027802;28;20033;-61
2022/06/12 12:23:42;;;;;;;0.00;0.00;;;;;;;;;;5028055;28;20417;-62
2022/06/12 12:26:14;;;;;;;0.00;0.00;;;;;;;;;;5010057;28;20049;-61
2022/06/12 12:28:46;;;;;;;0.00;0.00;;;;;;;;;;5027351;28;20367;-61
2022/06/12 12:31:13;;;;;;;0.00;0.00;;;;;;;;;;5026418;28;20173;-62
2022/06/12 12:33:39;;;;;;;0.00;0.00;;;;;;;;;;5027022;28;20032;-62
2022/06/12 12:41:40;;;;;;;0.00;0.00;;;;;;;;;;5027876;28;20040;-62
2022/06/12 12:44:05;;;;;;;0.00;0.00;;;;;;;;;;5028478;28;20060;-61
2022/06/12 12:47:00;;;;;;;0.00;0.00;;;;;;;;;;5027371;28;20064;-62
2022/06/12 12:49:25;;;;;;;0.03;0.03;;;;;;;;;;5006302;28;20037;-62
2022/06/12 12:51:50;;;;;;;0.00;0.00;;;;;;;;;;5028465;28;20060;-62
2022/06/12 12:54:20;;;;;;;0.00;0.00;;;;;;;;;;5009330;28;20276;-60
2022/06/12 12:56:51;;;;;;;0.00;0.00;;;;;;;;;;5027575;28;20112;-63
2022/06/12 12:59:16;;;;;;;0.00;0.00;;;;;;;;;;5009535;28;20050;-63
2022/06/12 13:01:43;;;;;;;0.00;0.00;;;;;;;;;;5007111;28;20037;-62
2022/06/12 13:04:14;;;;;;;0.00;0.00;;;;;;;;;;5007957;28;20367;-60
2022/06/12 13:06:45;;;;;;;0.47;0.17;;;;;;;;;;5007390;28;20112;-62
2022/06/12 13:09:23;;;;;;;0.00;0.00;;;;;;;;;;5006261;28;20072;-62
2022/06/12 13:12:03;;;;;;;0.00;0.00;;;;;;;;;;5008509;28;20045;-62
2022/06/12 13:14:54;;;;;;;0.00;0.00;;;;;;;;;;5009156;28;20026;-62
2022/06/12 13:17:30;;;;;;;0.00;0.00;;;;;;;;;;4992047;28;20069;-61
2022/06/12 13:20:01;;;;;;;0.00;0.00;;;;;;;;;;5008633;28;20033;-62
2022/06/12 13:22:34;;;;;;;1.55;0.35;;;;;;;;;;5008892;28;20022;-61
2022/06/12 13:24:59;;;;;;;0.00;0.00;;;;;;;;;;5009553;28;20374;-62
2022/06/12 13:27:27;;;;;;;2.63;1.80;;;;;;;;;;5009987;28;20014;-61
2022/06/12 13:29:53;;;;;;;0.17;0.17;;;;;;;;;;5008265;28;20289;-62
2022/06/12 13:32:26;;;;;;;0.00;0.00;;;;;;;;;;5008743;28;20026;-63
2022/06/12 13:34:55;;;;;;;0.00;0.00;;;;;;;;;;5009300;28;20057;-62
2022/06/12 13:37:20;;;;;;;1.13;1.13;;;;;;;;;;5007909;28;20367;-62
2022/06/12 13:39:47;;;;;;;0.00;0.00;;;;;;;;;;5007991;28;20030;-62
2022/06/12 13:42:15;;;;;;;0.08;0.08;;;;;;;;;;5003684;28;20076;-62
2022/06/12 13:44:43;;;;;;;0.00;0.00;;;;;;;;;;5006303;28;20470;-62
2022/06/12 13:47:27;;;;;;;0.00;0.00;;;;;;;;;;5009257;28;20097;-62
2022/06/12 13:49:54;;;;;;;0.00;0.00;;;;;;;;;;5007585;28;20049;-62
2022/06/12 13:52:25;;;;;;;0.00;0.00;;;;;;;;;;5008307;28;20040;-60
2022/06/12 13:54:50;;;;;;;0.10;0.10;;;;;;;;;;5009211;28;20030;-63
2022/06/12 13:57:25;;;;;;;0.00;0.00;;;;;;;;;;5007591;28;20076;-62
2022/06/12 13:59:51;;;;;;;0.00;0.00;;;;;;;;;;5008543;28;20152;-62
2022/06/12 14:02:27;;;;;;;0.00;0.00;;;;;;;;;;5008506;28;20144;-61
2022/06/12 14:04:55;;;;;;;0.10;0.10;;;;;;;;;;5008305;28;20108;-61
2022/06/12 14:07:21;;;;;;;0.13;0.13;;;;;;;;;;5008278;28;20438;-62
2022/06/12 14:09:47;;;;;;;0.00;0.00;;;;;;;;;;5007759;28;20033;-63
2022/06/12 14:12:13;;;;;;;0.00;0.00;;;;;;;;;;5007427;28;20045;-63
2022/06/12 14:14:40;;;;;;;0.00;0.00;;;;;;;;;;5008319;28;20754;-63
2022/06/12 14:17:16;;;;;;;0.17;0.17;;;;;;;;;;5007005;28;20026;-62
2022/06/12 14:19:42;;;;;;;1.25;1.23;;;;;;;;;;5007892;28;20030;-63
2022/06/12 14:22:13;;;;;;;0.00;0.00;;;;;;;;;;5006472;28;20080;-62
2022/06/12 14:24:39;;;;;;;0.00;0.00;;;;;;;;;;5006701;28;20025;-61
2022/06/12 14:27:18;;;;;;;0.00;0.00;;;;;;;;;;5003958;28;20110;-64
2022/06/12 14:29:45;;;;;;;0.15;0.15;;;;;;;;;;5007148;28;20053;-64
2022/06/12 14:32:10;;;;;;;0.00;0.00;;;;;;;;;;5004783;28;20386;-63
2022/06/12 14:34:36;;;;;;;0.00;0.00;;;;;;;;;;5004191;28;20112;-63
2022/06/12 14:37:02;;;;;;;0.00;0.00;;;;;;;;;;5006156;28;20034;-63
2022/06/12 14:39:31;;;;;;;0.00;0.00;;;;;;;;;;5006836;28;20498;-63
2022/06/12 14:42:00;;;;;;;0.15;0.15;;;;;;;;;;5007214;28;20028;-62
2022/06/12 14:44:26;;;;;;;0.17;0.17;;;;;;;;;;5007095;28;20017;-63
2022/06/12 14:46:53;;;;;;;0.10;0.10;;;;;;;;;;5007801;28;20025;-63
2022/06/12 14:49:19;;;;;;;0.00;0.00;;;;;;;;;;5007162;28;20022;-62
2022/06/12 14:51:46;;;;;;;0.00;0.00;;;;;;;;;;5005980;28;20044;-63
2022/06/12 14:54:11;;;;;;;0.15;0.15;;;;;;;;;;5004784;28;20040;-63
2022/06/12 14:56:39;;;;;;;0.00;0.00;;;;;;;;;;5009894;28;20029;-63
2022/06/12 14:59:11;;;;;;;0.00;0.00;;;;;;;;;;5009980;28;20419;-63
2022/06/12 15:01:36;;;;;;;0.00;0.00;;;;;;;;;;5008966;28;20014;-62
2022/06/12 15:04:01;;;;;;;0.00;0.00;;;;;;;;;;5008503;28;20374;-62
2022/06/12 15:06:27;;;;;;;0.00;0.00;;;;;;;;;;5010926;28;20038;-62
2022/06/12 15:08:52;;;;;;;0.00;0.00;;;;;;;;;;5011141;28;20095;-64
2022/06/12 15:11:20;;;;;;;0.00;0.00;;;;;;;;;;5011036;28;20257;-63